Time;durP1;ratioP1;P1;durP2;ratioP2;P2;SDS_P1;SDS_P2;PMS_P1;PMS_P2;Temp;Humidity;BMP_temperature;BMP_pressure;BME280_temperature;BME280_humidity;BME280_pressure;Samples;Min_cycle;Max_cycle;Signal;HPM_P1;HPM_P2
2023/01/20 10:12:47;;;;;;;40.53;37.53;;;1.70;99.90;;;;;;5105455;27;20560;-75
2023/01/20 10:15:18;;;;;;;41.67;37.60;;;3.40;99.90;;;;;;5105808;28;20456;-74
2023/01/20 10:17:51;;;;;;;37.20;34.23;;;3.70;99.90;;;;;;5105534;28;20444;-74
2023/01/20 10:20:27;;;;;;;36.03;33.40;;;3.70;99.90;;;;;;5105890;28;20548;-75
2023/01/20 10:22:57;;;;;;;40.10;36.90;;;3.70;99.90;;;;;;5105284;28;20673;-75
2023/01/20 10:25:29;;;;;;;36.10;33.23;;;3.80;99.90;;;;;;5105707;28;21112;-74
2023/01/20 10:28:04;;;;;;;35.90;32.90;;;3.90;99.90;;;;;;5105295;28;20948;-74
2023/01/20 10:30:35;;;;;;;35.43;32.83;;;3.90;99.90;;;;;;5105923;28;20485;-75
2023/01/20 10:33:06;;;;;;;33.83;31.13;;;4.20;99.90;;;;;;5105803;28;20450;-74
2023/01/20 10:35:37;;;;;;;34.73;32.20;;;4.30;99.90;;;;;;5105922;28;20445;-74
2023/01/20 10:38:07;;;;;;;32.13;29.50;;;4.80;99.90;;;;;;5105482;28;20454;-74
2023/01/20 10:40:40;;;;;;;29.97;27.47;;;5.40;99.90;;;;;;5105409;28;20454;-73
2023/01/20 10:43:12;;;;;;;28.53;25.83;;;5.90;99.90;;;;;;5105222;28;20449;-75
2023/01/20 10:46:00;;;;;;;27.07;24.90;;;6.10;99.90;;;;;;5105425;28;20457;-73
2023/01/20 10:48:50;;;;;;;27.37;24.97;;;6.10;99.90;;;;;;5105671;28;20456;-75
2023/01/20 10:51:23;;;;;;;27.30;24.70;;;6.10;99.90;;;;;;5105071;28;20548;-75
2023/01/20 10:54:01;;;;;;;28.60;26.33;;;5.80;99.90;;;;;;5104846;28;20457;-75
2023/01/20 10:56:52;;;;;;;25.10;22.93;;;5.80;99.90;;;;;;5105131;28;20461;-74
2023/01/20 10:59:27;;;;;;;27.63;25.00;;;6.30;99.90;;;;;;5105238;28;20843;-75
2023/01/20 11:02:00;;;;;;;24.03;22.30;;;6.80;99.90;;;;;;5104839;28;20448;-76
2023/01/20 11:04:27;;;;;;;21.60;20.13;;;7.30;99.90;;;;;;5104696;28;20445;-76
2023/01/20 11:06:57;;;;;;;21.73;20.00;;;8.50;99.90;;;;;;5104636;28;20465;-76
2023/01/20 11:09:30;;;;;;;21.43;19.53;;;8.90;99.90;;;;;;5104991;28;20506;-74
2023/01/20 11:11:57;;;;;;;20.40;18.80;;;8.20;99.90;;;;;;5100428;28;20486;-74
2023/01/20 11:14:26;;;;;;;19.13;17.90;;;8.50;99.90;;;;;;5090740;28;20700;-74
2023/01/20 11:16:59;;;;;;;17.03;15.83;;;8.60;99.90;;;;;;5090852;28;21533;-75
2023/01/20 11:19:26;;;;;;;17.30;16.00;;;8.60;99.90;;;;;;5091389;28;20886;-75
2023/01/20 11:21:53;;;;;;;16.90;15.90;;;8.70;99.90;;;;;;5090906;28;20450;-76
2023/01/20 11:24:37;;;;;;;16.83;15.90;;;8.70;99.90;;;;;;5090912;28;20516;-76
2023/01/20 11:27:06;;;;;;;15.20;14.30;;;8.30;99.90;;;;;;5090683;28;20446;-74
2023/01/20 11:29:40;;;;;;;13.73;12.93;;;7.80;99.90;;;;;;5091232;28;20446;-75
2023/01/20 11:32:31;;;;;;;14.93;14.10;;;8.40;99.90;;;;;;5090594;28;20486;-75
2023/01/20 11:34:58;;;;;;;14.07;13.17;;;9.80;99.90;;;;;;5090626;28;20454;-75
2023/01/20 11:37:27;;;;;;;13.10;12.43;;;12.00;96.60;;;;;;5090696;28;20945;-74
2023/01/20 11:39:59;;;;;;;14.30;13.50;;;13.50;90.50;;;;;;5090686;28;20458;-76
2023/01/20 11:42:29;;;;;;;13.57;12.87;;;14.60;88.10;;;;;;5090390;28;20434;-75
2023/01/20 11:45:00;;;;;;;15.00;14.10;;;15.80;75.60;;;;;;5090454;28;20523;-75
2023/01/20 11:47:29;;;;;;;15.20;14.40;;;17.30;72.30;;;;;;5090595;28;21044;-74
2023/01/20 11:50:26;;;;;;;15.17;14.40;;;17.50;69.50;;;;;;5090470;28;20454;-75
2023/01/20 11:53:10;;;;;;;15.40;14.53;;;18.00;63.00;;;;;;5089998;28;20805;-75
2023/01/20 11:55:48;;;;;;;15.73;14.87;;;17.10;62.90;;;;;;5090523;28;20453;-75
2023/01/20 11:58:19;;;;;;;15.40;14.20;;;15.50;65.30;;;;;;5093845;28;20489;-75
2023/01/20 12:00:49;;;;;;;14.93;14.03;;;14.90;69.50;;;;;;5094405;28;20446;-75
2023/01/20 12:03:42;;;;;;;16.50;15.40;;;15.20;67.10;;;;;;5090130;28;21014;-74
2023/01/20 12:06:16;;;;;;;15.70;14.80;;;15.20;68.70;;;;;;5090069;28;20462;-75
2023/01/20 12:08:48;;;;;;;15.60;14.60;;;16.00;68.80;;;;;;5090197;28;20870;-75
2023/01/20 12:11:18;;;;;;;15.90;14.77;;;14.40;67.70;;;;;;5089914;28;20497;-75
2023/01/20 12:14:21;;;;;;;15.17;14.33;;;13.60;71.60;;;;;;5089739;28;21035;-75
2023/01/20 12:17:06;;;;;;;14.80;13.67;;;12.40;74.00;;;;;;5090067;28;20586;-74
2023/01/20 12:19:43;;;;;;;14.70;13.90;;;11.30;73.90;;;;;;5089203;28;20454;-74
2023/01/20 12:22:17;;;;;;;15.40;14.60;;;10.00;82.90;;;;;;5089209;28;20503;-75
2023/01/20 12:25:09;;;;;;;16.00;15.20;;;9.20;89.10;;;;;;5088029;28;20446;-74
2023/01/20 12:27:42;;;;;;;13.73;12.70;;;8.40;92.20;;;;;;5089343;28;20798;-75
2023/01/20 12:30:34;;;;;;;14.50;13.60;;;7.80;95.60;;;;;;5089070;28;20635;-74
2023/01/20 12:33:02;;;;;;;12.67;11.83;;;7.50;96.00;;;;;;5089272;28;20446;-74
2023/01/20 12:35:39;;;;;;;13.10;12.27;;;7.20;98.20;;;;;;5089106;28;20739;-74
2023/01/20 12:38:08;;;;;;;12.13;11.50;;;7.00;97.10;;;;;;5089030;28;20450;-74
2023/01/20 12:40:43;;;;;;;12.83;12.07;;;7.10;98.90;;;;;;5089244;28;20555;-75
2023/01/20 12:43:27;;;;;;;12.40;11.67;;;6.80;99.90;;;;;;5089026;28;20446;-74
2023/01/20 12:46:13;;;;;;;15.07;14.00;;;6.70;98.70;;;;;;5088821;28;20499;-74
2023/01/20 12:48:54;;;;;;;14.00;13.10;;;6.80;98.30;;;;;;5088568;28;21145;-75
2023/01/20 12:51:32;;;;;;;12.23;11.30;;;6.80;98.10;;;;;;5088577;28;20539;-76
2023/01/20 12:54:18;;;;;;;14.03;13.20;;;6.90;98.30;;;;;;5088868;28;20442;-75
2023/01/20 12:56:50;;;;;;;13.07;12.40;;;6.80;98.00;;;;;;5088669;28;20933;-76
2023/01/20 12:59:29;;;;;;;12.10;11.50;;;6.70;98.30;;;;;;5088725;28;20454;-75
2023/01/20 13:02:17;;;;;;;14.13;13.33;;;6.80;99.00;;;;;;5088178;28;20500;-76
2023/01/20 13:05:20;;;;;;;12.20;11.50;;;6.70;99.40;;;;;;5088360;28;20505;-75
2023/01/20 13:08:02;;;;;;;13.13;12.23;;;6.50;98.10;;;;;;5088736;28;20470;-75
2023/01/20 13:10:50;;;;;;;12.77;12.07;;;6.80;97.90;;;;;;5088080;28;20972;-76
2023/01/20 13:13:27;;;;;;;13.50;12.33;;;6.40;96.50;;;;;;5088652;28;20446;-75
2023/01/20 13:15:59;;;;;;;14.70;13.90;;;6.10;97.10;;;;;;5087927;28;20450;-75
2023/01/20 13:18:33;;;;;;;13.97;13.17;;;6.10;97.90;;;;;;5088517;28;21034;-76
2023/01/20 13:21:00;;;;;;;12.30;11.63;;;5.90;97.20;;;;;;5088133;28;20498;-75
2023/01/20 13:23:31;;;;;;;15.20;13.83;;;5.70;97.00;;;;;;5087923;28;20817;-74
2023/01/20 13:25:59;;;;;;;14.60;13.60;;;5.50;97.80;;;;;;5087753;28;20454;-74
2023/01/20 13:28:28;;;;;;;13.33;12.30;;;5.30;99.50;;;;;;5087956;28;20454;-75
2023/01/20 13:30:56;;;;;;;13.90;12.80;;;5.40;99.30;;;;;;5087465;28;20839;-75
2023/01/20 13:33:32;;;;;;;13.23;12.40;;;5.50;99.40;;;;;;5087813;28;20477;-75
2023/01/20 13:36:00;;;;;;;12.93;12.13;;;5.50;99.90;;;;;;5087691;28;20802;-74
2023/01/20 13:38:32;;;;;;;14.77;14.00;;;5.60;99.90;;;;;;5087728;28;20454;-74
2023/01/20 13:41:02;;;;;;;14.23;13.30;;;5.70;99.90;;;;;;5087451;28;20450;-74
2023/01/20 13:43:51;;;;;;;14.40;13.40;;;5.70;99.90;;;;;;5087483;28;20451;-73
2023/01/20 13:46:37;;;;;;;15.27;14.10;;;5.60;99.90;;;;;;5087306;28;20523;-73
2023/01/20 13:49:27;;;;;;;14.63;13.70;;;5.60;99.90;;;;;;5087585;28;20458;-75
2023/01/20 13:51:53;;;;;;;13.83;13.03;;;5.40;99.90;;;;;;5085181;28;20837;-75
2023/01/20 13:54:47;;;;;;;13.43;12.43;;;5.50;99.90;;;;;;5088011;28;20955;-75
2023/01/20 13:57:35;;;;;;;12.70;12.00;;;5.50;99.90;;;;;;5087150;28;20517;-74
2023/01/20 14:00:16;;;;;;;12.20;11.40;;;5.60;99.60;;;;;;5087402;28;20458;-74
2023/01/20 14:02:44;;;;;;;11.40;10.70;;;5.50;99.90;;;;;;5087240;28;20446;-73
2023/01/20 14:05:26;;;;;;;11.50;10.80;;;5.40;99.90;;;;;;5087378;28;20580;-74
2023/01/20 14:07:53;;;;;;;12.83;11.80;;;5.40;99.90;;;;;;5087193;28;20461;-73
2023/01/20 14:10:21;;;;;;;13.50;12.40;;;5.40;99.90;;;;;;5086925;28;20446;-73
2023/01/20 14:12:48;;;;;;;11.97;11.03;;;5.50;99.60;;;;;;5086933;28;21196;-75
2023/01/20 14:15:35;;;;;;;13.73;12.83;;;5.50;99.90;;;;;;5086979;28;20446;-74
2023/01/20 14:18:03;;;;;;;14.20;13.40;;;5.30;99.90;;;;;;5087181;28;20956;-74
2023/01/20 14:20:30;;;;;;;14.20;13.20;;;5.30;99.90;;;;;;5086816;28;20458;-74
2023/01/20 14:23:29;;;;;;;13.13;12.43;;;5.20;99.90;;;;;;5086166;28;20507;-74
2023/01/20 14:26:09;;;;;;;13.40;12.30;;;5.00;99.90;;;;;;5086640;28;20449;-75
2023/01/20 14:28:43;;;;;;;12.73;11.77;;;4.90;99.90;;;;;;5086976;28;20446;-74
2023/01/20 14:31:18;;;;;;;13.70;12.60;;;4.80;99.90;;;;;;5086717;28;20430;-75
2023/01/20 14:33:47;;;;;;;13.90;12.70;;;4.80;99.90;;;;;;5087132;28;20453;-74
2023/01/20 14:36:19;;;;;;;13.43;12.33;;;4.70;99.90;;;;;;5087068;28;20442;-74
2023/01/20 14:38:50;;;;;;;13.03;12.40;;;4.70;99.90;;;;;;5086771;28;20450;-75
2023/01/20 14:41:28;;;;;;;13.80;12.70;;;4.60;99.90;;;;;;5086853;28;20499;-75
2023/01/20 14:43:55;;;;;;;13.00;12.20;;;4.50;99.90;;;;;;5086495;28;20458;-75
2023/01/20 14:46:22;;;;;;;13.47;12.57;;;4.40;99.90;;;;;;5086382;28;20824;-74
2023/01/20 14:48:50;;;;;;;13.10;12.40;;;4.30;99.90;;;;;;5090002;28;20445;-76
2023/01/20 14:51:17;;;;;;;12.60;11.70;;;4.40;99.90;;;;;;5090228;28;20446;-75
2023/01/20 14:53:45;;;;;;;14.60;13.47;;;4.60;99.90;;;;;;5090077;28;20458;-76
2023/01/20 14:56:19;;;;;;;13.80;12.80;;;4.60;99.90;;;;;;5089939;28;20446;-75
2023/01/20 14:58:49;;;;;;;13.20;12.23;;;4.50;99.90;;;;;;5090184;28;20820;-75
2023/01/20 15:01:21;;;;;;;13.20;12.30;;;4.60;99.90;;;;;;5090403;28;20519;-76
2023/01/20 15:03:55;;;;;;;12.47;11.73;;;4.50;99.90;;;;;;5090194;28;20588;-74
2023/01/20 15:06:24;;;;;;;13.70;12.80;;;4.50;99.90;;;;;;5089675;28;20552;-74
2023/01/20 15:08:52;;;;;;;13.60;12.47;;;4.30;99.90;;;;;;5089845;28;20872;-74
2023/01/20 15:11:23;;;;;;;12.40;11.53;;;4.20;99.90;;;;;;5089577;28;20952;-73
2023/01/20 15:14:09;;;;;;;15.03;13.90;;;4.00;99.90;;;;;;5085224;28;20890;-77
2023/01/20 15:16:48;;;;;;;13.07;12.20;;;3.90;99.90;;;;;;5073328;28;20887;-74
2023/01/20 15:19:34;;;;;;;11.53;10.93;;;3.70;99.90;;;;;;5069311;28;20763;-73
2023/01/20 15:22:21;;;;;;;11.80;11.00;;;3.60;99.90;;;;;;5067633;28;20457;-74
2023/01/20 15:24:49;;;;;;;13.93;13.00;;;3.50;99.90;;;;;;5069408;28;20505;-74
2023/01/20 15:27:29;;;;;;;12.97;11.90;;;3.40;99.90;;;;;;5069476;28;20458;-74
2023/01/20 15:30:15;;;;;;;14.47;13.47;;;3.40;99.90;;;;;;5069437;28;20481;-75
2023/01/20 15:32:42;;;;;;;12.83;12.13;;;3.40;99.90;;;;;;5069307;28;20483;-75
2023/01/20 15:35:13;;;;;;;15.63;14.60;;;3.20;99.90;;;;;;5069193;28;20450;-75
2023/01/20 15:37:40;;;;;;;17.80;16.47;;;3.10;99.90;;;;;;5069081;28;20875;-74
2023/01/20 15:40:14;;;;;;;17.83;16.27;;;3.00;99.90;;;;;;5069211;28;20477;-74
2023/01/20 15:42:40;;;;;;;17.03;15.80;;;3.00;99.90;;;;;;5069475;28;20454;-74
2023/01/20 15:45:13;;;;;;;20.93;19.27;;;2.80;99.90;;;;;;5069014;28;20538;-74
2023/01/20 15:47:40;;;;;;;16.80;15.30;;;2.80;99.90;;;;;;5068761;28;20787;-75
2023/01/20 15:50:14;;;;;;;17.57;16.27;;;2.70;99.90;;;;;;5068790;28;20873;-73
2023/01/20 15:52:41;;;;;;;17.97;16.40;;;2.60;99.90;;;;;;5068683;28;20763;-75
2023/01/20 15:55:11;;;;;;;17.17;15.77;;;2.60;99.90;;;;;;5068394;28;20458;-74
2023/01/20 15:57:38;;;;;;;16.97;15.57;;;2.60;99.90;;;;;;5063712;28;20558;-75
2023/01/20 16:00:06;;;;;;;17.23;15.90;;;2.60;99.90;;;;;;5067788;28;20451;-75
2023/01/20 16:02:34;;;;;;;15.43;14.60;;;2.50;99.90;;;;;;5067846;28;20983;-75
2023/01/20 16:05:01;;;;;;;15.97;14.77;;;2.50;99.90;;;;;;5068931;28;20463;-74
2023/01/20 16:07:28;;;;;;;16.37;15.17;;;2.40;99.90;;;;;;5068564;28;20512;-75
2023/01/20 16:09:54;;;;;;;17.40;15.87;;;2.30;99.90;;;;;;5068313;28;20885;-74
2023/01/20 16:12:21;;;;;;;18.77;16.93;;;2.30;99.90;;;;;;5068600;28;20495;-75
2023/01/20 16:14:48;;;;;;;17.70;16.47;;;2.10;99.90;;;;;;5069328;28;20459;-73
2023/01/20 16:17:16;;;;;;;18.47;17.17;;;2.00;99.90;;;;;;5068772;28;20439;-73
2023/01/20 16:19:45;;;;;;;17.67;16.37;;;2.00;99.90;;;;;;5068710;28;20465;-73
2023/01/20 16:22:12;;;;;;;18.03;16.57;;;1.90;99.90;;;;;;5068030;28;20923;-74
2023/01/20 16:24:39;;;;;;;18.97;17.30;;;2.00;99.90;;;;;;5068508;28;20709;-74
2023/01/20 16:27:16;;;;;;;21.97;19.73;;;1.90;99.90;;;;;;5068035;28;20508;-74
2023/01/20 16:29:42;;;;;;;19.67;18.17;;;1.80;99.90;;;;;;5067697;28;20447;-74
2023/01/20 16:32:09;;;;;;;20.97;19.37;;;1.70;99.90;;;;;;5067894;28;21056;-74
2023/01/20 16:34:36;;;;;;;18.90;17.37;;;1.70;99.90;;;;;;5068159;28;20856;-75
2023/01/20 16:37:05;;;;;;;20.97;19.07;;;1.80;99.90;;;;;;5068110;28;20451;-74
2023/01/20 16:39:32;;;;;;;21.33;19.60;;;1.80;99.90;;;;;;5068282;28;20534;-74
2023/01/20 16:41:58;;;;;;;20.33;18.80;;;1.70;99.90;;;;;;5067681;28;20608;-74
2023/01/20 16:44:25;;;;;;;20.50;18.70;;;1.70;99.90;;;;;;5067814;28;20555;-75
2023/01/20 16:46:52;;;;;;;22.90;20.83;;;1.60;99.90;;;;;;5067767;28;20466;-75
2023/01/20 16:49:19;;;;;;;21.87;20.20;;;1.50;99.90;;;;;;5068326;28;20454;-74
2023/01/20 16:51:46;;;;;;;21.27;19.50;;;1.50;99.90;;;;;;5068195;28;20459;-74
2023/01/20 16:54:14;;;;;;;21.07;19.17;;;1.40;99.90;;;;;;5067454;28;20582;-75
2023/01/20 16:56:41;;;;;;;20.17;18.80;;;1.30;99.90;;;;;;5067412;28;20974;-74
2023/01/20 16:59:09;;;;;;;22.47;20.57;;;1.10;99.90;;;;;;5067424;28;20462;-75
2023/01/20 17:01:36;;;;;;;22.30;20.10;;;1.00;99.90;;;;;;5067656;28;20447;-75
2023/01/20 17:04:04;;;;;;;19.90;18.20;;;0.90;99.90;;;;;;5068102;28;20447;-75
2023/01/20 17:06:33;;;;;;;22.73;20.33;;;0.90;99.90;;;;;;5067911;28;20546;-75
2023/01/20 17:09:02;;;;;;;22.57;20.57;;;0.80;99.90;;;;;;5067765;28;20490;-76
2023/01/20 17:11:31;;;;;;;22.67;20.83;;;0.70;99.90;;;;;;5067292;28;20992;-76
2023/01/20 17:14:00;;;;;;;23.40;21.17;;;0.60;99.90;;;;;;5067654;28;20487;-75
2023/01/20 17:16:27;;;;;;;23.70;21.80;;;0.60;99.90;;;;;;5067559;28;20455;-75
2023/01/20 17:18:57;;;;;;;22.67;20.87;;;0.60;99.90;;;;;;5067280;28;20861;-75
2023/01/20 17:21:26;;;;;;;24.43;22.60;;;0.50;99.90;;;;;;5067238;28;20455;-76
2023/01/20 17:23:55;;;;;;;24.30;22.20;;;0.30;99.90;;;;;;5067834;28;20536;-75
2023/01/20 17:26:22;;;;;;;22.57;20.90;;;0.30;99.90;;;;;;5067633;28;20497;-76
2023/01/20 17:28:54;;;;;;;20.27;18.23;;;0.20;99.90;;;;;;5068168;28;20443;-76
2023/01/20 17:31:21;;;;;;;22.27;20.50;;;0.10;99.90;;;;;;5067773;28;20884;-76
2023/01/20 17:33:48;;;;;;;24.10;22.23;;;0.10;99.90;;;;;;5067733;28;20491;-76
2023/01/20 17:36:16;;;;;;;22.37;20.90;;;0.10;99.90;;;;;;5067416;28;20785;-75
2023/01/20 17:38:43;;;;;;;26.20;21.23;;;0.00;99.90;;;;;;5068118;28;20942;-76
2023/01/20 17:41:10;;;;;;;22.50;20.47;;;0.00;99.90;;;;;;5067863;28;20534;-76
2023/01/20 17:43:39;;;;;;;21.90;20.33;;;0.00;99.90;;;;;;5067713;28;20945;-75
2023/01/20 17:46:14;;;;;;;23.77;21.80;;;-0.10;99.90;;;;;;5067307;28;20802;-75
2023/01/20 17:48:41;;;;;;;23.70;21.50;;;-0.10;99.90;;;;;;5067420;28;20519;-76
2023/01/20 17:51:11;;;;;;;24.73;22.57;;;0.00;99.90;;;;;;5067316;28;20774;-76
2023/01/20 17:53:38;;;;;;;24.60;22.23;;;0.10;99.90;;;;;;5067111;28;20498;-75
2023/01/20 17:56:06;;;;;;;24.50;22.50;;;0.10;99.90;;;;;;5067112;28;20462;-76
2023/01/20 17:58:32;;;;;;;21.20;19.50;;;0.10;99.90;;;;;;5067790;28;20439;-76
